Time;durP1;ratioP1;P1;durP2;ratioP2;P2;SDS_P1;SDS_P2;PMS_P1;PMS_P2;Temp;Humidity;BMP_temperature;BMP_pressure;BME280_temperature;BME280_humidity;BME280_pressure;Samples;Min_cycle;Max_cycle;Signal;HPM_P1;HPM_P2
2023/02/27 00:02:25;;;;;;;;;;;;;;;18.68;62.30;101946.45;2282814;76;22294;-74
2023/02/27 00:09:07;;;;;;;;;;;;;;;18.59;62.50;101955.89;2316414;75;21631;-74
2023/02/27 00:16:18;;;;;;;;;;;;;;;18.46;62.96;101948.20;2322240;76;22433;-75
2023/02/27 00:22:51;;;;;;;;;;;;;;;18.53;63.00;101949.30;2258044;78;22225;-74
2023/02/27 00:35:41;;;;;;;;;;;;;;;18.71;62.35;101947.98;2286772;76;22329;-74
2023/02/27 00:39:01;;;;;;;;;;;;;;;;;;;;;
2023/02/27 00:42:16;;;;;;;;;;;;;;;;;;;;;
2023/02/27 00:48:43;;;;;;;;;;;;;;;18.52;62.73;101954.80;2183570;80;22409;-74
2023/02/27 00:52:00;;;;;;;;;;;;;;;18.45;62.77;101950.05;2199769;80;22279;-74
2023/02/27 00:58:31;;;;;;;;;;;;;;;18.44;63.03;101956.38;2214265;79;22357;-73
2023/02/27 01:01:57;;;;;;;;;;;;;;;18.48;62.91;101948.91;2219548;79;22269;-75
2023/02/27 01:05:03;;;;;;;;;;;;;;;18.52;62.86;101954.30;2149181;82;22274;-74
2023/02/27 01:08:19;;;;;;;;;;;;;;;18.55;62.75;101945.98;2137346;82;51450;-74
2023/02/27 01:11:34;;;;;;;;;;;;;;;18.59;62.66;101946.50;2137799;82;22265;-74
2023/02/27 01:14:41;;;;;;;;;;;;;;;18.65;62.50;101941.87;2136150;82;21777;-73
2023/02/27 01:17:48;;;;;;;;;;;;;;;18.71;62.35;101938.59;2137150;82;22226;-74
2023/02/27 01:21:22;;;;;;;;;;;;;;;18.75;62.16;101941.33;2137566;82;22273;-74
2023/02/27 01:27:41;;;;;;;;;;;;;;;18.71;62.15;101943.95;2148618;81;22425;-73
2023/02/27 01:34:20;;;;;;;;;;;;;;;;;;;;;
2023/02/27 01:37:22;;;;;;;;;;;;;;;18.55;62.44;101941.09;2069375;84;22439;-74
2023/02/27 01:40:40;;;;;;;;;;;;;;;18.47;62.50;101930.66;2070105;84;22291;-74
2023/02/27 01:53:51;;;;;;;;;;;;;;;18.61;62.46;101932.46;2089016;82;22140;-74
2023/02/27 01:57:07;;;;;;;;;;;;;;;;;;;;;
2023/02/27 02:00:36;;;;;;;;;;;;;;;18.68;62.58;101933.04;2094511;83;22367;-74
2023/02/27 02:04:37;;;;;;;;;;;;;;;18.65;62.47;101931.14;2097125;84;22291;-72
2023/02/27 04:14:43;;;;;;;;;;;;;;;;;;;;;
2023/02/27 04:17:55;;;;;;;;;;;;;;;18.48;61.41;102006.53;2103234;83;22223;-75
2023/02/27 04:21:01;;;;;;;;;;;;;;;18.41;61.52;102008.11;2108803;84;22489;-74
2023/02/27 04:24:31;;;;;;;;;;;;;;;18.33;61.61;102015.55;2105464;84;22589;-74
2023/02/27 04:27:55;;;;;;;;;;;;;;;18.30;61.85;102021.22;2091835;82;21844;-74
2023/02/27 04:34:43;;;;;;;;;;;;;;;18.40;61.61;102014.48;2053224;85;22664;-73
2023/02/27 04:37:54;;;;;;;;;;;;;;;18.47;61.44;102017.75;2070547;84;22537;-73
2023/02/27 05:23:49;;;;;;;;;;;;;;;18.45;61.18;102033.14;2065219;85;22281;-74
2023/02/27 05:27:12;;;;;;;;;;;;;;;18.51;61.02;102024.98;2075363;84;22530;-74
2023/02/27 05:34:24;;;;;;;;;;;;;;;;;;;;;
2023/02/27 05:41:20;;;;;;;;;;;;;;;18.61;60.72;102038.34;2118779;82;22456;-75
2023/02/27 06:08:21;;;;;;;;;;;;;;;;;;;;;
2023/02/27 08:46:26;;;;;;;;;;;;;;;18.59;59.31;102187.77;2447060;72;22247;-73
2023/02/27 08:56:04;;;;;;;;;;;;;;;18.60;59.07;102188.11;2218758;78;22426;-73
2023/02/27 09:02:44;;;;;;;;;;;;;;;18.50;59.21;102193.52;2261409;77;22569;-72
2023/02/27 09:48:20;;;;;;;;;;;;;;;18.65;58.89;102219.34;2052571;85;22309;-72
2023/02/27 09:55:11;;;;;;;;;;;;;;;;;;;;;
2023/02/27 13:22:04;;;;;;;;;;;;;;;;;;;;;
2023/02/27 13:28:28;;;;;;;;;;;;;;;18.45;58.19;102231.47;2193626;77;22339;-73
2023/02/27 13:35:35;;;;;;;;;;;;;;;18.61;58.01;102226.84;2182778;80;22293;-72
2023/02/27 13:42:19;;;;;;;;;;;;;;;18.72;57.57;102224.48;2181388;80;22708;-73
2023/02/27 13:45:32;;;;;;;;;;;;;;;;;;;;;
2023/02/27 13:52:13;;;;;;;;;;;;;;;18.66;57.47;102221.06;2229530;78;22273;-73
2023/02/27 14:12:37;;;;;;;;;;;;;;;18.53;58.30;102229.91;2287335;75;22402;-73
2023/02/27 15:18:43;;;;;;;;;;;;;;;18.61;55.65;102267.06;2217599;79;22203;-72
2023/02/27 16:20:55;;;;;;;;;;;;;;;18.81;57.02;102297.41;2191774;80;22620;-73
2023/02/27 16:24:19;;;;;;;;;;;;;;;18.74;57.09;102300.27;2175419;80;22321;-74
2023/02/27 16:27:50;;;;;;;;;;;;;;;18.70;57.06;102295.70;2169571;81;50530;-76
2023/02/27 17:13:08;;;;;;;;;;;;;;;18.73;56.10;102321.39;2193811;75;22851;-75
2023/02/27 17:55:45;;;;;;;;;;;;;;;;;;;;;
2023/02/27 19:33:23;;;;;;;;;;;;;;;18.71;60.24;102372.97;2353403;73;22330;-75
2023/02/27 19:36:25;;;;;;;;;;;;;;;18.64;60.68;102369.98;2371829;74;51636;-75
2023/02/27 19:39:27;;;;;;;;;;;;;;;18.57;61.07;102371.53;2323557;76;50706;-77
2023/02/27 19:42:28;;;;;;;;;;;;;;;18.47;61.49;102370.69;2293370;76;51026;-74
2023/02/27 19:45:31;;;;;;;;;;;;;;;18.42;61.79;102372.47;2328941;75;50424;-75
2023/02/27 19:48:33;;;;;;;;;;;;;;;18.40;61.85;102378.45;2298150;74;51484;-76
2023/02/27 19:51:34;;;;;;;;;;;;;;;18.46;61.33;102373.03;2307537;77;51577;-75
2023/02/27 19:54:36;;;;;;;;;;;;;;;18.53;61.41;102371.48;2310282;75;51497;-76
2023/02/27 19:57:38;;;;;;;;;;;;;;;18.57;61.36;102370.70;2300098;75;51497;-75
2023/02/27 20:00:39;;;;;;;;;;;;;;;18.53;61.67;102374.66;2325847;75;50731;-76
2023/02/27 20:03:41;;;;;;;;;;;;;;;18.49;61.81;102373.58;2311809;76;50399;-76
2023/02/27 20:06:43;;;;;;;;;;;;;;;18.46;61.99;102373.03;2260392;76;52307;-77
2023/02/27 20:09:45;;;;;;;;;;;;;;;18.41;62.34;102380.14;2320977;76;51934;-77
2023/02/27 20:12:46;;;;;;;;;;;;;;;18.36;62.60;102377.03;2268573;78;51458;-77
2023/02/27 20:15:55;;;;;;;;;;;;;;;18.33;62.57;102373.30;2268434;77;51443;-74
2023/02/27 20:18:56;;;;;;;;;;;;;;;18.31;62.78;102376.60;2297816;74;51119;-76
2023/02/27 20:21:58;;;;;;;;;;;;;;;18.30;62.62;102376.26;2305440;77;50331;-76
2023/02/27 20:24:59;;;;;;;;;;;;;;;18.30;62.57;102378.94;2278763;77;50399;-76
2023/02/27 20:28:01;;;;;;;;;;;;;;;18.32;62.66;102381.49;2278906;77;50563;-76
2023/02/27 20:31:04;;;;;;;;;;;;;;;18.34;62.67;102380.84;2302624;77;50311;-75
2023/02/27 20:34:06;;;;;;;;;;;;;;;18.35;62.69;102375.34;2302180;75;50373;-77
2023/02/27 20:37:08;;;;;;;;;;;;;;;18.38;62.51;102376.41;2302413;77;50745;-75
2023/02/27 20:40:10;;;;;;;;;;;;;;;18.43;62.15;102384.88;2302684;77;51357;-77
2023/02/27 20:43:11;;;;;;;;;;;;;;;18.47;62.10;102376.05;2253993;77;51088;-76
2023/02/27 20:46:14;;;;;;;;;;;;;;;18.53;61.96;102373.33;2278806;76;50694;-76
2023/02/27 20:49:16;;;;;;;;;;;;;;;18.62;61.56;102384.52;2312258;75;50716;-78
2023/02/27 20:52:17;;;;;;;;;;;;;;;18.63;61.53;102380.88;2302907;76;50597;-76
2023/02/27 20:55:19;;;;;;;;;;;;;;;18.61;61.51;102380.16;2277677;76;52488;-74
2023/02/27 20:58:21;;;;;;;;;;;;;;;18.57;61.81;102376.06;2327615;75;50773;-76
2023/02/27 21:01:22;;;;;;;;;;;;;;;18.50;62.06;102380.66;2304003;76;49819;-76
2023/02/27 21:04:25;;;;;;;;;;;;;;;18.48;62.43;102382.63;2303646;76;51654;-75
2023/02/27 21:07:26;;;;;;;;;;;;;;;18.45;62.53;102387.42;2303708;76;49610;-77
2023/02/27 21:10:28;;;;;;;;;;;;;;;18.41;62.88;102384.66;2327725;75;50386;-77
2023/02/27 21:13:29;;;;;;;;;;;;;;;18.39;62.85;102387.47;2303387;75;51381;-76
2023/02/27 21:16:31;;;;;;;;;;;;;;;18.39;62.90;102386.13;2327655;75;50799;-75
2023/02/27 21:19:33;;;;;;;;;;;;;;;18.43;62.55;102397.44;2263575;75;51648;-76
2023/02/27 21:22:34;;;;;;;;;;;;;;;18.48;62.31;102394.69;2288986;77;50755;-76
2023/02/27 21:25:42;;;;;;;;;;;;;;;18.56;61.94;102391.80;2288851;77;50764;-77
2023/02/27 21:28:49;;;;;;;;;;;;;;;18.60;61.91;102390.52;2289014;77;51492;-78
2023/02/27 21:31:50;;;;;;;;;;;;;;;18.59;61.78;102388.83;2264567;77;22203;-77
2023/02/27 21:34:51;;;;;;;;;;;;;;;18.58;62.03;102384.47;2288961;76;50633;-77
2023/02/27 21:37:53;;;;;;;;;;;;;;;18.53;62.28;102386.73;2288744;76;51520;-77
2023/02/27 21:40:55;;;;;;;;;;;;;;;18.48;62.31;102386.64;2289059;77;51468;-78
2023/02/27 21:43:59;;;;;;;;;;;;;;;18.45;62.41;102386.92;2238764;77;53020;-77
2023/02/27 21:47:08;;;;;;;;;;;;;;;18.40;62.62;102389.68;2288041;76;50426;-77
2023/02/27 21:50:12;;;;;;;;;;;;;;;18.37;62.80;102393.95;2284572;76;22132;-77
2023/02/27 21:53:07;;;;;;;;;;;;;;;18.36;62.86;102389.59;2305588;75;22357;-77
2023/02/27 21:56:09;;;;;;;;;;;;;;;18.35;62.40;102391.93;2278188;76;51198;-75
2023/02/27 21:59:10;;;;;;;;;;;;;;;18.39;62.13;102390.14;2308878;77;51501;-76
2023/02/27 22:02:12;;;;;;;;;;;;;;;18.45;61.83;102392.29;2308888;77;51411;-75
2023/02/27 22:05:14;;;;;;;;;;;;;;;18.52;61.59;102390.38;2307208;77;51603;-74
2023/02/27 22:08:15;;;;;;;;;;;;;;;18.60;61.29;102394.07;2237913;78;51103;-74
2023/02/27 22:11:17;;;;;;;;;;;;;;;18.67;61.27;102392.99;2237916;78;51495;-74
2023/02/27 22:14:18;;;;;;;;;;;;;;;18.76;61.02;102393.53;2251674;77;50356;-74
2023/02/27 22:17:20;;;;;;;;;;;;;;;18.76;60.81;102392.19;2237768;79;50090;-74
2023/02/27 22:20:22;;;;;;;;;;;;;;;18.76;60.70;102392.19;2251591;78;50357;-74
2023/02/27 22:23:23;;;;;;;;;;;;;;;18.73;60.70;102395.13;2285998;76;50738;-74
2023/02/27 22:26:26;;;;;;;;;;;;;;;18.68;60.99;102395.55;2307569;76;51503;-74
2023/02/27 22:29:28;;;;;;;;;;;;;;;18.64;61.10;102395.46;2303055;77;51516;-74
2023/02/27 22:32:30;;;;;;;;;;;;;;;18.61;61.14;102397.59;2310716;77;51401;-74
2023/02/27 22:35:32;;;;;;;;;;;;;;;18.56;61.33;102396.66;2310750;77;51412;-74
2023/02/27 22:38:34;;;;;;;;;;;;;;;18.48;61.60;102400.55;2310352;76;50397;-73
2023/02/27 22:41:36;;;;;;;;;;;;;;;18.43;61.68;102400.11;2308649;77;50739;-74
2023/02/27 22:44:38;;;;;;;;;;;;;;;18.44;61.63;102394.59;2284705;77;51164;-74
2023/02/27 22:47:39;;;;;;;;;;;;;;;18.47;61.59;102395.69;2308582;77;50400;-74
2023/02/27 22:50:41;;;;;;;;;;;;;;;18.53;61.42;102400.13;2308841;77;51463;-74
2023/02/27 22:53:44;;;;;;;;;;;;;;;18.59;61.36;102406.27;2307827;75;50426;-74
2023/02/27 22:56:46;;;;;;;;;;;;;;;18.63;61.17;102411.20;2264971;77;22251;-74
2023/02/27 22:59:49;;;;;;;;;;;;;;;18.67;61.06;102410.42;2263160;77;51538;-74
2023/02/27 23:02:50;;;;;;;;;;;;;;;18.71;60.85;102414.03;2287678;76;52095;-74
2023/02/27 23:05:52;;;;;;;;;;;;;;;18.68;60.82;102413.47;2262999;76;50809;-76
2023/02/27 23:08:54;;;;;;;;;;;;;;;18.65;60.84;102413.73;2238310;77;52495;-74
2023/02/27 23:11:55;;;;;;;;;;;;;;;18.61;60.97;102416.36;2288819;77;50792;-74
2023/02/27 23:14:57;;;;;;;;;;;;;;;18.59;61.02;102422.34;2288849;77;50438;-74
2023/02/27 23:17:58;;;;;;;;;;;;;;;18.55;61.22;102423.59;2281034;76;50464;-74
2023/02/27 23:21:02;;;;;;;;;;;;;;;18.49;61.41;102425.01;2287048;76;51657;-74
2023/02/27 23:24:04;;;;;;;;;;;;;;;18.43;61.56;102425.08;2308770;77;50728;-74
2023/02/27 23:27:09;;;;;;;;;;;;;;;18.39;61.75;102433.03;2310704;77;50057;-74
2023/02/27 23:30:09;;;;;;;;;;;;;;;18.41;61.80;102428.88;2308620;76;22246;-74
2023/02/27 23:33:11;;;;;;;;;;;;;;;18.46;61.66;102430.66;2284863;77;51573;-74
2023/02/27 23:36:14;;;;;;;;;;;;;;;18.53;61.54;102428.28;2310556;77;51538;-74
2023/02/27 23:39:15;;;;;;;;;;;;;;;18.58;61.37;102429.55;2310708;77;50609;-74
2023/02/27 23:42:17;;;;;;;;;;;;;;;18.62;61.23;102434.97;2308854;77;50724;-74
2023/02/27 23:45:21;;;;;;;;;;;;;;;18.67;61.16;102438.58;2284761;77;52502;-74
2023/02/27 23:48:23;;;;;;;;;;;;;;;18.68;61.06;102436.27;2302947;76;50401;-77
2023/02/27 23:51:25;;;;;;;;;;;;;;;18.68;61.04;102446.99;2342496;76;51501;-74
2023/02/27 23:54:26;;;;;;;;;;;;;;;18.63;61.11;102442.04;2333294;76;51530;-74
2023/02/27 23:57:28;;;;;;;;;;;;;;;18.60;61.35;102442.80;2265685;76;51187;-74
